createdAt,value
2023-03-05T00:00:26.417Z,100830.82
2023-03-05T00:01:49.249Z,100828.23
2023-03-05T00:02:52.173Z,100827.13
2023-03-05T00:03:56.704Z,100826.27
2023-03-05T00:04:59.675Z,100823.27
2023-03-05T00:06:02.764Z,100823.63
2023-03-05T00:07:06.001Z,100822.92
2023-03-05T00:08:08.942Z,100820.13
2023-03-05T00:09:11.748Z,100822.50
2023-03-05T00:10:14.621Z,100816.89
2023-03-05T00:11:17.484Z,100820.36
2023-03-05T00:12:20.380Z,100815.80
2023-03-05T00:13:23.486Z,100816.58
2023-03-05T00:14:26.416Z,100813.84
2023-03-05T00:15:29.333Z,100814.42
2023-03-05T00:16:33.188Z,100811.81
2023-03-05T00:17:36.268Z,100812.05
2023-03-05T00:18:39.545Z,100809.98
2023-03-05T00:19:42.390Z,100807.09
2023-03-05T00:20:45.988Z,100809.81
2023-03-05T00:21:49.093Z,100808.48
2023-03-05T00:22:51.929Z,100806.09
2023-03-05T00:23:55.705Z,100805.07
2023-03-05T00:24:58.497Z,100804.23
2023-03-05T00:26:02.678Z,100801.10
2023-03-05T00:27:05.690Z,100800.13
2023-03-05T00:28:09.271Z,100794.71
2023-03-05T00:29:21.938Z,100793.97
2023-03-05T00:30:24.789Z,100793.33
2023-03-05T00:31:31.481Z,100792.36
2023-03-05T00:32:36.423Z,100792.00
2023-03-05T00:33:39.316Z,100792.77
2023-03-05T00:34:42.314Z,100793.57
2023-03-05T00:35:46.676Z,100790.39
2023-03-05T00:36:52.028Z,100793.13
2023-03-05T00:37:56.252Z,100799.02
2023-03-05T00:38:59.440Z,100799.44
2023-03-05T00:40:03.864Z,100801.95
2023-03-05T00:41:06.835Z,100803.10
2023-03-05T00:42:09.809Z,100803.87
2023-03-05T00:43:12.701Z,100804.13
2023-03-05T00:44:15.938Z,100798.46
2023-03-05T00:45:18.882Z,100801.98
2023-03-05T00:46:23.208Z,100797.92
2023-03-05T00:47:26.072Z,100793.41
2023-03-05T00:48:28.948Z,100788.49
2023-03-05T00:49:31.823Z,100788.87
2023-03-05T00:50:34.660Z,100789.59
2023-03-05T00:51:37.667Z,100791.08
2023-03-05T00:52:40.821Z,100792.48
2023-03-05T00:53:44.849Z,100785.34
2023-03-05T00:54:47.731Z,100783.62
2023-03-05T00:55:50.570Z,100782.79
2023-03-05T00:56:53.656Z,100778.60
2023-03-05T00:57:56.777Z,100781.92
2023-03-05T00:58:59.735Z,100776.63
2023-03-05T01:00:02.680Z,100778.12
2023-03-05T01:01:06.506Z,100774.13
2023-03-05T01:02:09.819Z,100770.14
2023-03-05T01:03:13.183Z,100771.91
2023-03-05T01:04:16.044Z,100772.83
2023-03-05T01:05:19.153Z,100763.39
2023-03-05T01:06:22.311Z,100761.58
2023-03-05T01:07:25.269Z,100764.45
2023-03-05T01:08:28.366Z,100765.09
2023-03-05T01:09:31.536Z,100765.48
2023-03-05T01:10:34.831Z,100764.41
2023-03-05T01:11:37.784Z,100761.34
2023-03-05T01:12:40.691Z,100760.34
2023-03-05T01:13:43.732Z,100758.58
2023-03-05T01:14:46.817Z,100757.68
2023-03-05T01:15:51.113Z,100758.88
2023-03-05T01:16:54.296Z,100758.91
2023-03-05T01:17:57.154Z,100754.30
2023-03-05T01:19:00.157Z,100755.19
2023-03-05T01:20:04.230Z,100754.10
2023-03-05T01:21:07.499Z,100755.19
2023-03-05T01:22:10.745Z,100756.06
2023-03-05T01:23:13.995Z,100753.85
2023-03-05T01:24:16.865Z,100753.33
2023-03-05T01:25:20.201Z,100752.80
2023-03-05T01:26:23.011Z,100751.80
2023-03-05T01:27:26.186Z,100750.02
2023-03-05T01:28:29.415Z,100750.66
2023-03-05T01:29:32.273Z,100745.82
2023-03-05T01:30:35.732Z,100741.50
2023-03-05T01:31:38.956Z,100739.27
2023-03-05T01:32:42.877Z,100736.98
2023-03-05T01:33:45.846Z,100730.80
2023-03-05T01:34:49.020Z,100732.55
2023-03-05T01:35:52.094Z,100729.90
2023-03-05T01:36:55.020Z,100731.30
2023-03-05T01:37:58.089Z,100726.23
2023-03-05T01:39:01.500Z,100726.09
2023-03-05T01:40:06.314Z,100721.85
2023-03-05T01:41:10.925Z,100719.23
2023-03-05T01:42:13.808Z,100715.42
2023-03-05T01:43:34.700Z,100715.02
2023-03-05T01:44:37.496Z,100712.95
2023-03-05T01:46:19.100Z,100712.77
2023-03-05T01:47:21.977Z,100711.42
2023-03-05T01:48:25.313Z,100711.31
2023-03-05T01:49:38.848Z,100706.73
2023-03-05T01:50:41.845Z,100703.15
2023-03-05T01:51:50.842Z,100701.96
2023-03-05T01:52:59.576Z,100700.30
2023-03-05T01:54:05.930Z,100695.36
2023-03-05T01:55:14.942Z,100694.34
2023-03-05T01:56:17.983Z,100695.00
2023-03-05T01:57:26.548Z,100694.70
2023-03-05T01:58:29.583Z,100694.05
2023-03-05T01:59:33.512Z,100692.17
2023-03-05T02:00:52.718Z,100689.98
2023-03-05T02:01:58.585Z,100691.53
2023-03-05T02:03:07.493Z,100689.27
2023-03-05T02:04:15.472Z,100686.38
2023-03-05T02:05:31.575Z,100689.77
2023-03-05T02:06:34.956Z,100686.96
2023-03-05T02:07:40.195Z,100683.86
2023-03-05T02:08:43.060Z,100684.69
2023-03-05T02:09:46.024Z,100686.44
2023-03-05T02:10:51.695Z,100684.66
2023-03-05T02:11:56.509Z,100681.98
2023-03-05T02:13:02.052Z,100680.77
2023-03-05T02:14:05.533Z,100677.95
2023-03-05T02:15:09.487Z,100677.23
2023-03-05T02:16:12.854Z,100679.56
2023-03-05T02:17:16.112Z,100679.42
2023-03-05T02:18:23.000Z,100679.17
2023-03-05T02:19:26.029Z,100677.23
2023-03-05T02:20:42.362Z,100677.04
2023-03-05T02:21:48.203Z,100674.27
2023-03-05T02:22:51.190Z,100678.20
2023-03-05T02:23:54.389Z,100675.60
2023-03-05T02:24:57.450Z,100671.74
2023-03-05T02:26:00.603Z,100675.83
2023-03-05T02:27:05.033Z,100669.39
2023-03-05T02:28:28.331Z,100670.66
2023-03-05T02:29:32.968Z,100667.16
2023-03-05T02:32:04.613Z,100665.31
2023-03-05T02:33:08.339Z,100666.08
2023-03-05T02:34:11.433Z,100664.14
2023-03-05T02:35:14.477Z,100665.34
2023-03-05T02:36:18.725Z,100663.39
2023-03-05T02:37:21.882Z,100659.73
2023-03-05T02:38:28.076Z,100664.79
2023-03-05T02:39:34.100Z,100660.95
2023-03-05T02:40:36.959Z,100659.60
2023-03-05T02:41:40.208Z,100657.52
2023-03-05T02:42:43.727Z,100654.89
2023-03-05T02:43:48.040Z,100655.48
2023-03-05T02:44:51.009Z,100653.48
2023-03-05T02:45:53.960Z,100653.51
2023-03-05T02:46:57.141Z,100651.20
2023-03-05T02:48:02.894Z,100652.70
2023-03-05T02:49:05.833Z,100648.42
2023-03-05T02:50:11.274Z,100645.70
2023-03-05T02:51:16.394Z,100646.11
2023-03-05T02:52:23.193Z,100644.98
2023-03-05T02:53:27.321Z,100643.98
2023-03-05T02:54:30.175Z,100640.23
2023-03-05T02:55:33.269Z,100638.51
2023-03-05T02:56:38.391Z,100640.30
2023-03-05T02:57:41.726Z,100640.33
2023-03-05T02:58:44.725Z,100637.29
2023-03-05T02:59:48.077Z,100632.54
2023-03-05T03:00:51.982Z,100632.73
2023-03-05T03:01:55.263Z,100631.52
2023-03-05T03:02:58.452Z,100630.24
2023-03-05T03:04:01.539Z,100629.35
2023-03-05T03:05:05.064Z,100627.75
2023-03-05T03:06:08.003Z,100631.16
2023-03-05T03:07:14.742Z,100626.42
2023-03-05T03:08:17.700Z,100625.20
2023-03-05T03:09:21.025Z,100624.34
2023-03-05T03:10:23.916Z,100620.45
2023-03-05T03:11:26.752Z,100617.19
2023-03-05T03:12:29.600Z,100617.94
2023-03-05T03:13:32.497Z,100619.23
2023-03-05T03:14:39.206Z,100618.30
2023-03-05T03:15:42.128Z,100616.91
2023-03-05T03:16:45.013Z,100615.88
2023-03-05T03:17:48.135Z,100613.66
2023-03-05T03:18:50.995Z,100615.44
2023-03-05T03:19:53.906Z,100614.73
2023-03-05T03:20:56.746Z,100616.19
2023-03-05T03:21:59.821Z,100615.77
2023-03-05T03:23:02.717Z,100612.61
2023-03-05T03:24:05.866Z,100613.52
2023-03-05T03:25:09.501Z,100611.20
2023-03-05T03:26:12.443Z,100610.67
2023-03-05T03:27:15.652Z,100606.59
2023-03-05T03:28:18.670Z,100613.55
2023-03-05T03:29:21.796Z,100616.57
2023-03-05T03:30:24.794Z,100623.73
2023-03-05T03:31:27.678Z,100627.69
2023-03-05T03:32:31.736Z,100640.64
2023-03-05T03:33:34.556Z,100637.23
2023-03-05T03:34:37.458Z,100632.20
2023-03-05T03:35:40.496Z,100633.79
2023-03-05T03:36:45.384Z,100633.79
2023-03-05T03:37:48.570Z,100637.47
2023-03-05T03:38:51.415Z,100633.79
2023-03-05T03:39:54.276Z,100636.26
2023-03-05T03:40:57.138Z,100635.87
2023-03-05T03:42:00.524Z,100640.55
2023-03-05T03:43:03.853Z,100636.81
2023-03-05T03:44:08.892Z,100638.80
2023-03-05T03:45:12.370Z,100627.96
2023-03-05T03:46:15.323Z,100616.45
2023-03-05T03:47:18.412Z,100608.09
2023-03-05T03:48:21.482Z,100608.41
2023-03-05T03:49:26.016Z,100611.86
2023-03-05T03:50:29.082Z,100610.55
2023-03-05T03:51:31.982Z,100615.02
2023-03-05T03:52:34.878Z,100616.92
2023-03-05T03:53:37.980Z,100611.86
2023-03-05T03:54:41.089Z,100608.20
2023-03-05T03:55:46.426Z,100608.44
2023-03-05T03:56:49.925Z,100604.12
2023-03-05T03:57:53.369Z,100604.12
2023-03-05T03:58:56.392Z,100600.77
2023-03-05T04:00:00.319Z,100595.61
2023-03-05T04:01:03.381Z,100592.73
2023-03-05T04:02:07.280Z,100590.26
2023-03-05T04:03:10.230Z,100586.95
2023-03-05T04:04:13.979Z,100587.18
2023-03-05T04:05:17.011Z,100580.34
2023-03-05T04:06:19.956Z,100579.98
2023-03-05T04:07:22.781Z,100573.44
2023-03-05T04:08:25.741Z,100573.40
2023-03-05T04:09:28.636Z,100572.29
2023-03-05T04:10:31.480Z,100574.73
2023-03-05T04:11:35.583Z,100572.77
2023-03-05T04:12:38.500Z,100572.84
2023-03-05T04:13:41.646Z,100573.52
2023-03-05T04:14:49.004Z,100574.17
2023-03-05T04:15:51.957Z,100571.40
2023-03-05T04:16:54.867Z,100572.45
2023-03-05T04:17:57.832Z,100571.36
2023-03-05T04:19:00.722Z,100567.66
2023-03-05T04:20:06.156Z,100564.64
2023-03-05T04:21:09.708Z,100562.89
2023-03-05T04:22:14.532Z,100561.29
2023-03-05T04:23:17.852Z,100560.84
2023-03-05T04:24:20.742Z,100565.23
2023-03-05T04:25:23.697Z,100569.91
2023-03-05T04:26:27.100Z,100573.12
2023-03-05T04:27:29.968Z,100578.91
2023-03-05T04:28:33.565Z,100582.27
2023-03-05T04:29:37.167Z,100587.63
2023-03-05T04:30:40.111Z,100585.19
2023-03-05T04:31:42.988Z,100584.47
2023-03-05T04:32:45.869Z,100579.60
2023-03-05T04:33:48.866Z,100580.27
2023-03-05T04:34:51.693Z,100577.02
2023-03-05T04:35:54.783Z,100577.30
2023-03-05T04:36:57.673Z,100571.92
2023-03-05T04:38:00.541Z,100567.77
2023-03-05T04:39:04.898Z,100565.35
2023-03-05T04:40:09.251Z,100564.86
2023-03-05T04:41:12.155Z,100557.40
2023-03-05T04:42:15.162Z,100560.66
2023-03-05T04:43:18.203Z,100561.91
2023-03-05T04:44:23.453Z,100557.30
2023-03-05T04:45:26.431Z,100557.41
2023-03-05T04:46:29.432Z,100552.48
2023-03-05T04:47:32.671Z,100550.02
2023-03-05T04:48:35.489Z,100548.25
2023-03-05T04:49:38.326Z,100550.92
2023-03-05T04:50:41.182Z,100548.87
2023-03-05T04:51:44.762Z,100547.64
2023-03-05T04:52:47.952Z,100548.02
2023-03-05T04:53:50.772Z,100546.98
2023-03-05T04:54:54.513Z,100549.95
2023-03-05T04:55:57.593Z,100545.77
2023-03-05T04:57:00.553Z,100545.27
2023-03-05T04:58:03.603Z,100543.67
2023-03-05T04:59:06.379Z,100545.12
2023-03-05T05:00:16.102Z,100542.46
2023-03-05T05:01:19.163Z,100543.14
2023-03-05T05:02:22.202Z,100545.02
2023-03-05T05:03:25.098Z,100544.24
2023-03-05T05:04:28.032Z,100544.46
2023-03-05T05:05:30.957Z,100542.16
2023-03-05T05:06:34.044Z,100542.43
2023-03-05T05:07:36.945Z,100542.13
2023-03-05T05:08:39.858Z,100543.80
2023-03-05T05:09:42.974Z,100545.96
2023-03-05T05:10:45.844Z,100547.43
2023-03-05T05:11:48.805Z,100548.89
2023-03-05T05:12:51.764Z,100546.45
2023-03-05T05:13:54.648Z,100546.23
2023-03-05T05:15:01.150Z,100545.66
2023-03-05T05:16:07.123Z,100543.48
2023-03-05T05:17:10.053Z,100542.88
2023-03-05T05:18:12.945Z,100546.97
2023-03-05T05:19:16.433Z,100545.20
2023-03-05T05:20:20.082Z,100544.33
2023-03-05T05:21:23.037Z,100545.89
2023-03-05T05:22:27.094Z,100547.09
2023-03-05T05:23:29.899Z,100545.37
2023-03-05T05:24:32.834Z,100544.89
2023-03-05T05:25:35.697Z,100543.30
2023-03-05T05:26:38.619Z,100543.35
2023-03-05T05:27:41.563Z,100544.02
2023-03-05T05:28:44.569Z,100543.73
2023-03-05T05:29:50.415Z,100543.46
2023-03-05T05:30:53.717Z,100543.41
2023-03-05T05:31:56.566Z,100541.64
2023-03-05T05:32:59.537Z,100542.39
2023-03-05T05:34:02.396Z,100544.18
2023-03-05T05:35:05.616Z,100542.13
2023-03-05T05:36:11.383Z,100539.95
2023-03-05T05:37:14.343Z,100543.15
2023-03-05T05:38:17.298Z,100544.61
2023-03-05T05:39:20.569Z,100542.77
2023-03-05T05:40:23.555Z,100539.87
2023-03-05T05:41:26.764Z,100541.73
2023-03-05T05:42:29.582Z,100541.05
2023-03-05T05:43:33.054Z,100538.67
2023-03-05T05:44:35.943Z,100542.37
2023-03-05T05:45:39.100Z,100538.33
2023-03-05T05:46:42.280Z,100541.86
2023-03-05T05:47:45.297Z,100539.98
2023-03-05T05:48:48.816Z,100542.84
2023-03-05T05:49:51.959Z,100540.20
2023-03-05T05:50:55.263Z,100538.13
2023-03-05T05:51:59.236Z,100536.91
2023-03-05T05:53:02.203Z,100535.83
2023-03-05T05:54:05.335Z,100537.85
2023-03-05T05:55:08.773Z,100536.24
2023-03-05T05:56:13.213Z,100536.35
2023-03-05T05:57:16.372Z,100537.19
2023-03-05T05:58:19.355Z,100533.97
2023-03-05T05:59:22.330Z,100536.19
2023-03-05T06:00:25.251Z,100535.75
2023-03-05T06:01:33.067Z,100536.44
2023-03-05T06:02:39.081Z,100534.66
2023-03-05T06:03:42.008Z,100533.73
2023-03-05T06:04:44.883Z,100534.66
2023-03-05T06:05:47.907Z,100532.83
2023-03-05T06:06:50.879Z,100532.85
2023-03-05T06:07:53.760Z,100532.73
2023-03-05T06:08:57.124Z,100528.73
2023-03-05T06:10:00.030Z,100528.32
2023-03-05T06:11:02.924Z,100527.61
2023-03-05T06:12:06.739Z,100526.21
2023-03-05T06:13:09.779Z,100523.22
2023-03-05T06:14:13.266Z,100525.55
2023-03-05T06:15:16.295Z,100523.36
2023-03-05T06:16:24.112Z,100522.48
2023-03-05T06:17:30.599Z,100523.48
2023-03-05T06:18:37.062Z,100522.31
2023-03-05T06:19:43.021Z,100521.93
2023-03-05T06:20:46.023Z,100523.18
2023-03-05T06:21:49.045Z,100520.16
2023-03-05T06:22:51.938Z,100523.02
2023-03-05T06:23:55.097Z,100520.72
2023-03-05T06:24:57.969Z,100521.33
2023-03-05T06:26:06.156Z,100521.47
2023-03-05T06:27:09.287Z,100518.72
2023-03-05T06:28:12.446Z,100518.80
2023-03-05T06:29:16.151Z,100517.70
2023-03-05T06:30:19.164Z,100513.83
2023-03-05T06:31:28.010Z,100515.12
2023-03-05T06:32:31.101Z,100515.95
2023-03-05T06:33:34.541Z,100515.52
2023-03-05T06:34:37.371Z,100512.58
2023-03-05T06:35:40.457Z,100510.67
2023-03-05T06:36:44.270Z,100512.33
2023-03-05T06:37:47.302Z,100515.39
2023-03-05T06:38:53.317Z,100512.91
2023-03-05T06:39:56.463Z,100514.14
2023-03-05T06:41:05.977Z,100515.83
2023-03-05T06:42:08.848Z,100511.00
2023-03-05T06:43:11.870Z,100514.11
2023-03-05T06:44:15.211Z,100518.41
2023-03-05T06:45:18.095Z,100517.21
2023-03-05T06:46:30.255Z,100519.98
2023-03-05T06:47:33.368Z,100514.96
2023-03-05T06:48:36.383Z,100518.37
2023-03-05T06:49:39.316Z,100517.27
2023-03-05T06:50:42.317Z,100517.64
2023-03-05T06:51:45.172Z,100520.39
2023-03-05T06:52:50.990Z,100518.90
2023-03-05T06:53:54.949Z,100514.44
2023-03-05T06:54:57.812Z,100517.79
2023-03-05T06:56:01.466Z,100520.61
2023-03-05T06:57:04.418Z,100517.57
2023-03-05T06:58:08.347Z,100517.73
2023-03-05T06:59:13.332Z,100514.98
2023-03-05T07:00:16.432Z,100513.88
2023-03-05T07:01:20.699Z,100513.09
2023-03-05T07:02:23.697Z,100515.04
2023-03-05T07:03:26.716Z,100515.95
2023-03-05T07:04:29.574Z,100511.82
2023-03-05T07:05:34.223Z,100511.27
2023-03-05T07:06:42.276Z,100505.83
2023-03-05T07:07:45.176Z,100510.44
2023-03-05T07:08:48.623Z,100507.11
2023-03-05T07:09:53.142Z,100506.29
2023-03-05T07:10:55.922Z,100506.80
2023-03-05T07:11:58.742Z,100504.91
2023-03-05T07:13:01.610Z,100503.55
2023-03-05T07:14:04.535Z,100502.69
2023-03-05T07:15:08.366Z,100504.16
2023-03-05T07:16:16.209Z,100504.48
2023-03-05T07:17:19.122Z,100504.92
2023-03-05T07:18:21.922Z,100503.75
2023-03-05T07:19:24.995Z,100504.43
2023-03-05T07:20:27.898Z,100504.06
2023-03-05T07:21:33.578Z,100501.38
2023-03-05T07:22:37.866Z,100497.95
2023-03-05T07:23:40.968Z,100497.72
2023-03-05T07:24:43.852Z,100500.36
2023-03-05T07:25:46.800Z,100497.02
2023-03-05T07:26:49.621Z,100498.83
2023-03-05T07:27:52.509Z,100498.20
2023-03-05T07:28:56.801Z,100494.01
2023-03-05T07:29:59.687Z,100504.28
2023-03-05T07:31:05.843Z,100498.37
2023-03-05T07:32:08.853Z,100499.39
2023-03-05T07:33:12.164Z,100501.45
2023-03-05T07:34:18.373Z,100499.89
2023-03-05T07:35:21.297Z,100502.23
2023-03-05T07:36:24.614Z,100500.31
2023-03-05T07:37:27.525Z,100498.33
2023-03-05T07:38:33.673Z,100494.86
2023-03-05T07:39:36.616Z,100498.57
2023-03-05T07:40:39.584Z,100499.00
2023-03-05T07:41:42.773Z,100498.55
2023-03-05T07:42:45.675Z,100496.79
2023-03-05T07:43:54.078Z,100498.02
2023-03-05T07:44:57.174Z,100498.65
2023-03-05T07:46:00.243Z,100496.36
2023-03-05T07:47:03.366Z,100496.78
2023-03-05T07:48:06.958Z,100490.02
2023-03-05T07:49:09.888Z,100496.20
2023-03-05T07:50:12.899Z,100492.38
2023-03-05T07:51:18.561Z,100492.14
2023-03-05T07:52:21.813Z,100490.17
2023-03-05T07:53:24.667Z,100493.48
2023-03-05T07:54:27.712Z,100490.35
2023-03-05T07:55:30.826Z,100486.84
2023-03-05T07:56:35.799Z,100486.77
2023-03-05T07:57:39.186Z,100488.27
2023-03-05T07:58:42.081Z,100488.44
2023-03-05T07:59:45.067Z,100493.36
2023-03-05T08:00:49.407Z,100491.27
2023-03-05T08:01:52.573Z,100489.69
2023-03-05T08:02:55.525Z,100487.61
2023-03-05T08:03:58.501Z,100488.99
2023-03-05T08:05:01.650Z,100485.06
2023-03-05T08:06:06.635Z,100487.14
2023-03-05T08:07:09.739Z,100490.14
2023-03-05T08:08:12.720Z,100489.02
2023-03-05T08:09:17.118Z,100489.13
2023-03-05T08:10:20.378Z,100484.73
2023-03-05T08:11:23.511Z,100484.84
2023-03-05T08:12:26.488Z,100483.65
2023-03-05T08:13:29.377Z,100486.96
2023-03-05T08:14:32.385Z,100488.77
2023-03-05T08:15:37.836Z,100487.38
2023-03-05T08:16:41.269Z,100485.17
2023-03-05T08:17:44.196Z,100485.02
2023-03-05T08:18:48.312Z,100486.36
2023-03-05T08:19:51.172Z,100486.60
2023-03-05T08:20:54.102Z,100478.00
2023-03-05T08:21:56.911Z,100482.95
2023-03-05T08:22:59.750Z,100480.95
2023-03-05T08:24:08.464Z,100480.19
2023-03-05T08:25:11.918Z,100476.33
2023-03-05T08:26:17.850Z,100473.48
2023-03-05T08:27:20.829Z,100473.90
2023-03-05T08:28:23.790Z,100470.97
2023-03-05T08:29:26.922Z,100470.69
2023-03-05T08:30:29.816Z,100469.54
2023-03-05T08:31:33.432Z,100470.45
2023-03-05T08:32:36.514Z,100466.16
2023-03-05T08:33:40.074Z,100466.05
2023-03-05T08:34:43.017Z,100469.60
2023-03-05T08:35:46.073Z,100469.88
2023-03-05T08:36:49.359Z,100466.84
2023-03-05T08:37:52.429Z,100468.47
2023-03-05T08:38:56.259Z,100461.92
2023-03-05T08:39:59.237Z,100467.58
2023-03-05T08:41:02.478Z,100468.18
2023-03-05T08:42:08.828Z,100462.81
2023-03-05T08:43:12.389Z,100463.90
2023-03-05T08:44:17.597Z,100462.27
2023-03-05T08:45:20.461Z,100465.17
2023-03-05T08:46:24.011Z,100457.44
2023-03-05T08:47:28.054Z,100463.30
2023-03-05T08:48:31.906Z,100458.66
2023-03-05T08:49:34.739Z,100456.60
2023-03-05T08:50:39.060Z,100458.73
2023-03-05T08:51:42.097Z,100454.46
2023-03-05T08:52:44.982Z,100454.89
2023-03-05T08:53:48.132Z,100457.06
2023-03-05T08:54:51.057Z,100451.32
2023-03-05T08:55:55.629Z,100450.38
2023-03-05T08:56:58.684Z,100451.76
2023-03-05T08:58:01.990Z,100456.03
2023-03-05T08:59:05.918Z,100449.17
2023-03-05T09:00:10.413Z,100452.05
2023-03-05T09:01:15.545Z,100450.50
2023-03-05T09:02:18.553Z,100447.17
2023-03-05T09:03:21.491Z,100448.30
2023-03-05T09:04:24.415Z,100444.71
2023-03-05T09:05:27.421Z,100450.98
2023-03-05T09:06:30.467Z,100448.45
2023-03-05T09:07:33.516Z,100449.41
2023-03-05T09:08:36.977Z,100448.94
2023-03-05T09:09:40.641Z,100449.45
2023-03-05T09:10:45.167Z,100450.27
2023-03-05T09:11:48.193Z,100448.29
2023-03-05T09:12:51.131Z,100448.60
2023-03-05T09:13:54.133Z,100453.15
2023-03-05T09:14:57.429Z,100452.17
2023-03-05T09:16:04.996Z,100456.72
2023-03-05T09:17:09.283Z,100455.36
2023-03-05T09:18:12.588Z,100452.31
2023-03-05T09:19:15.666Z,100462.16
2023-03-05T09:20:18.658Z,100461.87
2023-03-05T09:21:21.542Z,100463.36
2023-03-05T09:22:24.382Z,100461.67
2023-03-05T09:23:27.232Z,100465.21
2023-03-05T09:24:30.076Z,100463.66
2023-03-05T09:25:32.986Z,100461.84
2023-03-05T09:26:36.016Z,100464.15
2023-03-05T09:27:39.590Z,100461.73
2023-03-05T09:28:42.688Z,100465.77
2023-03-05T09:29:45.537Z,100462.30
2023-03-05T09:30:48.878Z,100459.21
2023-03-05T09:31:51.805Z,100459.37
2023-03-05T09:32:54.803Z,100464.19
2023-03-05T09:33:57.699Z,100467.13
2023-03-05T09:35:00.512Z,100464.00
2023-03-05T09:36:04.823Z,100465.13
2023-03-05T09:37:09.094Z,100467.98
2023-03-05T09:38:11.867Z,100462.70
2023-03-05T09:39:15.379Z,100462.77
2023-03-05T09:40:20.002Z,100464.66
2023-03-05T09:41:34.696Z,100466.27
2023-03-05T09:43:11.674Z,100463.29
2023-03-05T09:44:41.958Z,100463.05
2023-03-05T09:46:05.869Z,100464.45
2023-03-05T09:47:50.834Z,100454.74
2023-03-05T09:49:14.872Z,100457.05
2023-03-05T09:50:32.708Z,100455.77
2023-03-05T09:51:41.481Z,100456.31
2023-03-05T09:52:59.495Z,100446.38
2023-03-05T09:54:10.922Z,100447.09
2023-03-05T09:55:23.915Z,100453.29
2023-03-05T09:56:30.911Z,100451.64
2023-03-05T09:57:48.702Z,100450.75
2023-03-05T09:58:56.299Z,100450.52
2023-03-05T10:00:07.804Z,100448.34
2023-03-05T10:01:29.866Z,100446.66
2023-03-05T10:02:37.087Z,100445.29
2023-03-05T10:04:08.102Z,100445.16
2023-03-05T10:05:23.876Z,100441.17
2023-03-05T10:06:31.542Z,100432.46
2023-03-05T10:07:39.934Z,100447.13
2023-03-05T10:08:53.661Z,100441.30
2023-03-05T10:10:02.002Z,100440.72
2023-03-05T10:11:12.916Z,100443.60
2023-03-05T10:12:42.931Z,100439.09
2023-03-05T10:13:46.533Z,100433.28
2023-03-05T10:14:49.652Z,100433.02
2023-03-05T10:15:58.411Z,100438.81
2023-03-05T10:17:28.683Z,100433.55
2023-03-05T10:18:56.275Z,100434.77
2023-03-05T10:20:31.000Z,100431.79
2023-03-05T10:21:44.835Z,100428.39
2023-03-05T10:23:09.234Z,100430.61
2023-03-05T10:24:41.537Z,100431.91
2023-03-05T10:26:09.721Z,100434.08
2023-03-05T10:27:20.470Z,100432.82
2023-03-05T10:28:29.248Z,100432.70
2023-03-05T10:30:07.542Z,100434.71
2023-03-05T10:31:17.099Z,100426.40
2023-03-05T10:32:35.586Z,100433.74
2023-03-05T10:34:04.137Z,100435.52
2023-03-05T10:35:36.186Z,100433.33
2023-03-05T10:36:46.791Z,100434.70
2023-03-05T10:38:14.467Z,100437.36
2023-03-05T10:39:37.786Z,100439.05
2023-03-05T10:40:42.819Z,100431.85
2023-03-05T10:42:14.705Z,100432.73
2023-03-05T10:43:41.856Z,100434.61
2023-03-05T10:44:49.082Z,100435.18
2023-03-05T10:45:57.140Z,100435.45
2023-03-05T10:47:02.950Z,100435.36
2023-03-05T10:48:11.455Z,100430.09
2023-03-05T10:49:26.821Z,100436.08
2023-03-05T10:50:44.824Z,100427.88
2023-03-05T10:51:51.955Z,100431.42
2023-03-05T10:53:17.803Z,100428.67
2023-03-05T10:54:30.294Z,100437.36
2023-03-05T10:55:33.302Z,100434.19
2023-03-05T10:56:37.151Z,100431.90
2023-03-05T10:57:40.096Z,100431.54
2023-03-05T10:58:42.991Z,100431.56
2023-03-05T11:00:01.782Z,100428.40
2023-03-05T11:01:22.079Z,100428.34
2023-03-05T11:02:25.006Z,100426.32
2023-03-05T11:04:04.039Z,100430.73
2023-03-05T11:05:39.144Z,100428.58
2023-03-05T11:06:48.259Z,100423.86
2023-03-05T11:07:51.209Z,100426.05
2023-03-05T11:08:54.265Z,100423.12
2023-03-05T11:10:15.411Z,100426.80
2023-03-05T11:11:21.097Z,100423.75
2023-03-05T11:12:27.640Z,100420.61
2023-03-05T11:13:32.828Z,100419.44
2023-03-05T11:14:42.771Z,100414.29
2023-03-05T11:16:05.654Z,100412.11
2023-03-05T11:17:27.549Z,100412.90
2023-03-05T11:18:34.627Z,100410.76
2023-03-05T11:19:39.561Z,100414.83
2023-03-05T11:20:42.912Z,100409.66
2023-03-05T11:22:04.436Z,100418.83
2023-03-05T11:23:23.985Z,100413.36
2023-03-05T11:24:26.860Z,100417.60
2023-03-05T11:25:30.520Z,100418.31
2023-03-05T11:26:33.767Z,100422.09
2023-03-05T11:27:51.995Z,100422.65
2023-03-05T11:29:00.460Z,100424.27
2023-03-05T11:30:18.222Z,100423.23
2023-03-05T11:31:27.314Z,100419.13
2023-03-05T11:32:31.578Z,100423.76
2023-03-05T11:33:37.024Z,100421.54
2023-03-05T11:34:41.097Z,100417.58
2023-03-05T11:35:44.656Z,100414.52
2023-03-05T11:37:20.590Z,100408.84
2023-03-05T11:38:26.998Z,100404.71
2023-03-05T11:39:33.148Z,100401.45
2023-03-05T11:40:36.324Z,100396.45
2023-03-05T11:41:58.026Z,100393.41
2023-03-05T11:43:02.819Z,100404.08
2023-03-05T11:44:15.169Z,100395.52
2023-03-05T11:45:19.512Z,100402.61
2023-03-05T11:46:23.216Z,100396.27
2023-03-05T11:47:32.091Z,100400.75
2023-03-05T11:48:37.548Z,100394.77
2023-03-05T11:49:45.322Z,100389.19
2023-03-05T11:50:54.549Z,100390.96
2023-03-05T11:52:08.657Z,100389.95
2023-03-05T11:53:17.902Z,100386.02
2023-03-05T11:54:28.724Z,100394.47
2023-03-05T11:55:44.746Z,100379.80
2023-03-05T11:56:47.851Z,100394.45
2023-03-05T11:57:57.406Z,100381.88
2023-03-05T11:59:03.027Z,100383.19
2023-03-05T12:00:13.285Z,100394.73
2023-03-05T12:01:23.564Z,100387.69
2023-03-05T12:02:27.985Z,100393.05
2023-03-05T12:03:34.905Z,100391.66
2023-03-05T12:04:37.928Z,100388.63
2023-03-05T12:05:45.778Z,100398.95
2023-03-05T12:06:57.246Z,100398.09
2023-03-05T12:08:02.354Z,100393.02
2023-03-05T12:09:18.614Z,100393.13
2023-03-05T12:10:24.598Z,100393.15
2023-03-05T12:11:30.230Z,100388.97
2023-03-05T12:12:36.197Z,100398.09
2023-03-05T12:13:48.815Z,100393.87
2023-03-05T12:14:56.845Z,100388.17
2023-03-05T12:16:17.732Z,100386.40
2023-03-05T12:17:43.780Z,100381.52
2023-03-05T12:19:07.958Z,100386.50
2023-03-05T12:20:37.078Z,100382.66
2023-03-05T12:21:42.055Z,100377.23
2023-03-05T12:22:45.602Z,100379.70
2023-03-05T12:24:01.755Z,100380.90
2023-03-05T12:25:25.613Z,100381.33
2023-03-05T12:26:53.385Z,100378.89
2023-03-05T12:27:56.257Z,100382.56
2023-03-05T12:28:59.239Z,100381.77
2023-03-05T12:30:03.319Z,100385.55
2023-03-05T12:31:27.312Z,100382.14
2023-03-05T12:32:32.824Z,100384.26
2023-03-05T12:33:41.799Z,100381.95